sensor_id;sensor_type;location;lat;lon;timestamp;pressure;altitude;pressure_sealevel;temperature
24639;BMP180;1641;51.306;12.384;2022-07-23T00:02:11;100337.00;;;21.90
24639;BMP180;1641;51.306;12.384;2022-07-23T00:04:36;100343.00;;;21.90
24639;BMP180;1641;51.306;12.384;2022-07-23T00:07:01;100340.00;;;21.50
24639;BMP180;1641;51.306;12.384;2022-07-23T00:09:27;100338.00;;;21.40
24639;BMP180;1641;51.306;12.384;2022-07-23T00:11:53;100333.00;;;21.30
24639;BMP180;1641;51.306;12.384;2022-07-23T00:14:18;100333.00;;;21.40
24639;BMP180;1641;51.306;12.384;2022-07-23T00:16:44;100304.00;;;21.40
24639;BMP180;1641;51.306;12.384;2022-07-23T00:19:12;100295.00;;;21.00
24639;BMP180;1641;51.306;12.384;2022-07-23T00:21:40;100335.00;;;21.10
24639;BMP180;1641;51.306;12.384;2022-07-23T00:24:05;100324.00;;;21.30
24639;BMP180;1641;51.306;12.384;2022-07-23T00:26:30;100316.00;;;21.30
24639;BMP180;1641;51.306;12.384;2022-07-23T00:28:59;100303.00;;;21.50
24639;BMP180;1641;51.306;12.384;2022-07-23T00:31:24;100304.00;;;21.30
24639;BMP180;1641;51.306;12.384;2022-07-23T00:33:49;100321.00;;;21.20
24639;BMP180;1641;51.306;12.384;2022-07-23T00:36:15;100310.00;;;21.10
24639;BMP180;1641;51.306;12.384;2022-07-23T00:38:40;100268.00;;;21.30
24639;BMP180;1641;51.306;12.384;2022-07-23T00:41:05;100303.00;;;21.30
24639;BMP180;1641;51.306;12.384;2022-07-23T00:43:30;100298.00;;;21.30
24639;BMP180;1641;51.306;12.384;2022-07-23T00:45:56;100290.00;;;21.20
24639;BMP180;1641;51.306;12.384;2022-07-23T00:48:21;100287.00;;;21.20
24639;BMP180;1641;51.306;12.384;2022-07-23T00:50:46;100285.00;;;21.20
24639;BMP180;1641;51.306;12.384;2022-07-23T00:53:12;100279.00;;;21.20
24639;BMP180;1641;51.306;12.384;2022-07-23T00:55:37;100285.00;;;21.10
24639;BMP180;1641;51.306;12.384;2022-07-23T00:58:04;100289.00;;;21.40
24639;BMP180;1641;51.306;12.384;2022-07-23T01:00:29;100288.00;;;21.10
24639;BMP180;1641;51.306;12.384;2022-07-23T01:02:54;100276.00;;;21.20
24639;BMP180;1641;51.306;12.384;2022-07-23T01:05:20;100280.00;;;21.40
24639;BMP180;1641;51.306;12.384;2022-07-23T01:07:48;100287.00;;;21.50
24639;BMP180;1641;51.306;12.384;2022-07-23T01:10:14;100288.00;;;21.50
24639;BMP180;1641;51.306;12.384;2022-07-23T01:13:06;100275.00;;;21.20
24639;BMP180;1641;51.306;12.384;2022-07-23T01:15:33;100265.00;;;21.10
24639;BMP180;1641;51.306;12.384;2022-07-23T01:17:58;100262.00;;;20.70
24639;BMP180;1641;51.306;12.384;2022-07-23T01:20:24;100256.00;;;21.10
24639;BMP180;1641;51.306;12.384;2022-07-23T01:22:50;100260.00;;;21.00
24639;BMP180;1641;51.306;12.384;2022-07-23T01:25:15;100260.00;;;21.20
24639;BMP180;1641;51.306;12.384;2022-07-23T01:27:40;100251.00;;;21.40
24639;BMP180;1641;51.306;12.384;2022-07-23T01:30:07;100230.00;;;21.30
24639;BMP180;1641;51.306;12.384;2022-07-23T01:32:32;100234.00;;;21.30
24639;BMP180;1641;51.306;12.384;2022-07-23T01:34:57;100236.00;;;21.00
24639;BMP180;1641;51.306;12.384;2022-07-23T01:37:22;100243.00;;;21.00
24639;BMP180;1641;51.306;12.384;2022-07-23T01:39:48;100246.00;;;20.70
24639;BMP180;1641;51.306;12.384;2022-07-23T01:42:13;100247.00;;;20.70
24639;BMP180;1641;51.306;12.384;2022-07-23T01:44:38;100253.00;;;20.90
24639;BMP180;1641;51.306;12.384;2022-07-23T01:47:03;100244.00;;;21.20
24639;BMP180;1641;51.306;12.384;2022-07-23T01:49:29;100246.00;;;21.20
24639;BMP180;1641;51.306;12.384;2022-07-23T01:51:54;100240.00;;;21.10
24639;BMP180;1641;51.306;12.384;2022-07-23T01:54:29;100241.00;;;20.90
24639;BMP180;1641;51.306;12.384;2022-07-23T01:56:55;100244.00;;;20.90
24639;BMP180;1641;51.306;12.384;2022-07-23T01:59:21;100235.00;;;21.00
24639;BMP180;1641;51.306;12.384;2022-07-23T02:01:46;100234.00;;;21.10
24639;BMP180;1641;51.306;12.384;2022-07-23T02:04:11;100228.00;;;21.00
24639;BMP180;1641;51.306;12.384;2022-07-23T02:06:39;100230.00;;;20.70
24639;BMP180;1641;51.306;12.384;2022-07-23T02:09:05;100227.00;;;20.60
24639;BMP180;1641;51.306;12.384;2022-07-23T02:11:30;100229.00;;;20.50
24639;BMP180;1641;51.306;12.384;2022-07-23T02:13:55;100202.00;;;20.60
24639;BMP180;1641;51.306;12.384;2022-07-23T02:16:20;100229.00;;;20.80
24639;BMP180;1641;51.306;12.384;2022-07-23T02:18:46;100227.00;;;20.80
24639;BMP180;1641;51.306;12.384;2022-07-23T02:21:12;100228.00;;;20.80
24639;BMP180;1641;51.306;12.384;2022-07-23T02:23:37;100236.00;;;20.60
24639;BMP180;1641;51.306;12.384;2022-07-23T02:26:02;100252.00;;;20.40
24639;BMP180;1641;51.306;12.384;2022-07-23T02:28:27;100261.00;;;20.50
24639;BMP180;1641;51.306;12.384;2022-07-23T02:30:53;100269.00;;;20.40
24639;BMP180;1641;51.306;12.384;2022-07-23T02:33:18;100256.00;;;20.40
24639;BMP180;1641;51.306;12.384;2022-07-23T02:35:43;100248.00;;;20.40
24639;BMP180;1641;51.306;12.384;2022-07-23T02:38:08;100260.00;;;20.40
24639;BMP180;1641;51.306;12.384;2022-07-23T02:40:34;100269.00;;;20.40
24639;BMP180;1641;51.306;12.384;2022-07-23T02:42:59;100273.00;;;20.10
24639;BMP180;1641;51.306;12.384;2022-07-23T02:45:24;100269.00;;;20.40
24639;BMP180;1641;51.306;12.384;2022-07-23T02:47:49;100274.00;;;20.50
24639;BMP180;1641;51.306;12.384;2022-07-23T02:50:15;100265.00;;;20.40
24639;BMP180;1641;51.306;12.384;2022-07-23T02:52:41;100249.00;;;19.90
24639;BMP180;1641;51.306;12.384;2022-07-23T02:55:07;100260.00;;;20.20
24639;BMP180;1641;51.306;12.384;2022-07-23T02:57:32;100240.00;;;20.20
24639;BMP180;1641;51.306;12.384;2022-07-23T02:59:57;100265.00;;;20.10
24639;BMP180;1641;51.306;12.384;2022-07-23T03:02:23;100266.00;;;20.10
24639;BMP180;1641;51.306;12.384;2022-07-23T03:04:49;100268.00;;;20.40
24639;BMP180;1641;51.306;12.384;2022-07-23T03:07:16;100266.00;;;20.50
24639;BMP180;1641;51.306;12.384;2022-07-23T03:09:41;100268.00;;;20.30
24639;BMP180;1641;51.306;12.384;2022-07-23T03:12:07;100255.00;;;20.00
24639;BMP180;1641;51.306;12.384;2022-07-23T03:14:35;100264.00;;;19.90
24639;BMP180;1641;51.306;12.384;2022-07-23T03:17:06;100254.00;;;20.30
24639;BMP180;1641;51.306;12.384;2022-07-23T03:19:38;100244.00;;;20.00
24639;BMP180;1641;51.306;12.384;2022-07-23T03:22:04;100248.00;;;20.10
24639;BMP180;1641;51.306;12.384;2022-07-23T03:24:32;100245.00;;;19.90
24639;BMP180;1641;51.306;12.384;2022-07-23T03:27:16;100251.00;;;19.90
24639;BMP180;1641;51.306;12.384;2022-07-23T03:29:41;100230.00;;;20.00
24639;BMP180;1641;51.306;12.384;2022-07-23T03:32:06;100220.00;;;19.60
24639;BMP180;1641;51.306;12.384;2022-07-23T03:34:32;100222.00;;;19.40
24639;BMP180;1641;51.306;12.384;2022-07-23T03:36:57;100212.00;;;19.30
24639;BMP180;1641;51.306;12.384;2022-07-23T03:39:22;100212.00;;;19.60
24639;BMP180;1641;51.306;12.384;2022-07-23T03:41:48;100216.00;;;19.70
24639;BMP180;1641;51.306;12.384;2022-07-23T03:44:13;100213.00;;;19.90
24639;BMP180;1641;51.306;12.384;2022-07-23T03:46:38;100214.00;;;19.40
24639;BMP180;1641;51.306;12.384;2022-07-23T03:49:04;100220.00;;;19.20
24639;BMP180;1641;51.306;12.384;2022-07-23T03:51:30;100212.00;;;19.20
24639;BMP180;1641;51.306;12.384;2022-07-23T03:53:58;100220.00;;;19.70
24639;BMP180;1641;51.306;12.384;2022-07-23T03:56:23;100224.00;;;20.00
24639;BMP180;1641;51.306;12.384;2022-07-23T03:58:49;100218.00;;;19.90
24639;BMP180;1641;51.306;12.384;2022-07-23T04:01:14;100224.00;;;19.90
24639;BMP180;1641;51.306;12.384;2022-07-23T04:03:39;100235.00;;;19.90
24639;BMP180;1641;51.306;12.384;2022-07-23T04:06:06;100245.00;;;19.80
24639;BMP180;1641;51.306;12.384;2022-07-23T04:08:31;100276.00;;;19.70
24639;BMP180;1641;51.306;12.384;2022-07-23T04:10:57;100324.00;;;19.50
24639;BMP180;1641;51.306;12.384;2022-07-23T04:13:25;100368.00;;;19.70
24639;BMP180;1641;51.306;12.384;2022-07-23T04:15:50;100387.00;;;19.70
24639;BMP180;1641;51.306;12.384;2022-07-23T04:18:16;100394.00;;;19.40
24639;BMP180;1641;51.306;12.384;2022-07-23T04:20:43;100384.00;;;19.10
24639;BMP180;1641;51.306;12.384;2022-07-23T04:23:08;100395.00;;;19.30
24639;BMP180;1641;51.306;12.384;2022-07-23T04:25:35;100368.00;;;19.30
24639;BMP180;1641;51.306;12.384;2022-07-23T04:28:00;100357.00;;;19.50
24639;BMP180;1641;51.306;12.384;2022-07-23T04:30:25;100339.00;;;19.50
24639;BMP180;1641;51.306;12.384;2022-07-23T04:32:54;100345.00;;;19.40
24639;BMP180;1641;51.306;12.384;2022-07-23T04:35:19;100345.00;;;19.60
24639;BMP180;1641;51.306;12.384;2022-07-23T04:37:45;100351.00;;;19.50
24639;BMP180;1641;51.306;12.384;2022-07-23T04:40:12;100333.00;;;19.70
24639;BMP180;1641;51.306;12.384;2022-07-23T04:42:37;100304.00;;;20.30
24639;BMP180;1641;51.306;12.384;2022-07-23T04:45:03;100290.00;;;20.20
24639;BMP180;1641;51.306;12.384;2022-07-23T04:47:29;100264.00;;;19.80
24639;BMP180;1641;51.306;12.384;2022-07-23T04:49:58;100218.00;;;18.60
24639;BMP180;1641;51.306;12.384;2022-07-23T04:52:24;100197.00;;;18.30
24639;BMP180;1641;51.306;12.384;2022-07-23T04:54:49;100178.00;;;17.90
24639;BMP180;1641;51.306;12.384;2022-07-23T04:57:15;100170.00;;;18.10
24639;BMP180;1641;51.306;12.384;2022-07-23T04:59:40;100187.00;;;18.20
24639;BMP180;1641;51.306;12.384;2022-07-23T05:02:05;100204.00;;;18.50
24639;BMP180;1641;51.306;12.384;2022-07-23T05:04:30;100209.00;;;18.10
24639;BMP180;1641;51.306;12.384;2022-07-23T05:06:56;100237.00;;;18.40
24639;BMP180;1641;51.306;12.384;2022-07-23T05:09:22;100252.00;;;18.20
24639;BMP180;1641;51.306;12.384;2022-07-23T05:11:47;100285.00;;;18.40
24639;BMP180;1641;51.306;12.384;2022-07-23T05:14:12;100310.00;;;18.00
24639;BMP180;1641;51.306;12.384;2022-07-23T05:16:38;100313.00;;;17.90
24639;BMP180;1641;51.306;12.384;2022-07-23T05:19:03;100255.00;;;17.80
24639;BMP180;1641;51.306;12.384;2022-07-23T05:21:29;100263.00;;;18.20
24639;BMP180;1641;51.306;12.384;2022-07-23T05:23:54;100247.00;;;18.20
24639;BMP180;1641;51.306;12.384;2022-07-23T05:26:19;100241.00;;;18.20
24639;BMP180;1641;51.306;12.384;2022-07-23T05:28:45;100219.00;;;17.80
24639;BMP180;1641;51.306;12.384;2022-07-23T05:31:10;100249.00;;;17.40
24639;BMP180;1641;51.306;12.384;2022-07-23T05:33:35;100280.00;;;17.50
24639;BMP180;1641;51.306;12.384;2022-07-23T05:36:02;100216.00;;;17.60
24639;BMP180;1641;51.306;12.384;2022-07-23T05:38:28;100262.00;;;17.80
24639;BMP180;1641;51.306;12.384;2022-07-23T05:40:53;100264.00;;;17.70
24639;BMP180;1641;51.306;12.384;2022-07-23T05:43:18;100247.00;;;17.50
24639;BMP180;1641;51.306;12.384;2022-07-23T05:45:44;100231.00;;;17.60
24639;BMP180;1641;51.306;12.384;2022-07-23T05:48:09;100307.00;;;17.60
24639;BMP180;1641;51.306;12.384;2022-07-23T05:50:34;100325.00;;;17.60
24639;BMP180;1641;51.306;12.384;2022-07-23T05:53:00;100313.00;;;17.50
24639;BMP180;1641;51.306;12.384;2022-07-23T05:55:25;100301.00;;;17.60
24639;BMP180;1641;51.306;12.384;2022-07-23T05:57:50;100293.00;;;17.70
24639;BMP180;1641;51.306;12.384;2022-07-23T06:00:16;100303.00;;;17.90
24639;BMP180;1641;51.306;12.384;2022-07-23T06:02:41;100283.00;;;18.10
24639;BMP180;1641;51.306;12.384;2022-07-23T06:05:07;100289.00;;;18.10
24639;BMP180;1641;51.306;12.384;2022-07-23T06:07:33;100286.00;;;18.20
24639;BMP180;1641;51.306;12.384;2022-07-23T06:09:58;100288.00;;;18.30
24639;BMP180;1641;51.306;12.384;2022-07-23T06:12:23;100270.00;;;18.60
24639;BMP180;1641;51.306;12.384;2022-07-23T06:14:49;100255.00;;;18.80
24639;BMP180;1641;51.306;12.384;2022-07-23T06:17:16;100288.00;;;18.80
24639;BMP180;1641;51.306;12.384;2022-07-23T06:19:42;100282.00;;;19.30
24639;BMP180;1641;51.306;12.384;2022-07-23T06:22:07;100224.00;;;18.60
24639;BMP180;1641;51.306;12.384;2022-07-23T06:24:33;100275.00;;;18.70
24639;BMP180;1641;51.306;12.384;2022-07-23T06:26:58;100274.00;;;19.00
24639;BMP180;1641;51.306;12.384;2022-07-23T06:29:23;100281.00;;;19.40
24639;BMP180;1641;51.306;12.384;2022-07-23T06:31:48;100281.00;;;19.70
24639;BMP180;1641;51.306;12.384;2022-07-23T06:34:13;100287.00;;;19.70
24639;BMP180;1641;51.306;12.384;2022-07-23T06:36:39;100288.00;;;20.00
24639;BMP180;1641;51.306;12.384;2022-07-23T06:39:04;100294.00;;;20.50
24639;BMP180;1641;51.306;12.384;2022-07-23T06:41:29;100300.00;;;21.10
24639;BMP180;1641;51.306;12.384;2022-07-23T06:43:54;100283.00;;;21.10
24639;BMP180;1641;51.306;12.384;2022-07-23T06:46:20;100280.00;;;21.40
24639;BMP180;1641;51.306;12.384;2022-07-23T06:48:46;100288.00;;;21.30
24639;BMP180;1641;51.306;12.384;2022-07-23T06:51:11;100288.00;;;20.70
24639;BMP180;1641;51.306;12.384;2022-07-23T06:53:36;100293.00;;;20.40
24639;BMP180;1641;51.306;12.384;2022-07-23T06:56:02;100297.00;;;20.20
24639;BMP180;1641;51.306;12.384;2022-07-23T06:58:27;100288.00;;;19.80
24639;BMP180;1641;51.306;12.384;2022-07-23T07:00:53;100296.00;;;19.60
24639;BMP180;1641;51.306;12.384;2022-07-23T07:03:18;100301.00;;;19.50
24639;BMP180;1641;51.306;12.384;2022-07-23T07:05:43;100309.00;;;19.60
24639;BMP180;1641;51.306;12.384;2022-07-23T07:08:08;100326.00;;;19.90
24639;BMP180;1641;51.306;12.384;2022-07-23T07:10:34;100317.00;;;20.20
24639;BMP180;1641;51.306;12.384;2022-07-23T07:12:59;100309.00;;;20.80
24639;BMP180;1641;51.306;12.384;2022-07-23T07:15:24;100319.00;;;20.90
24639;BMP180;1641;51.306;12.384;2022-07-23T07:17:50;100335.00;;;20.80
24639;BMP180;1641;51.306;12.384;2022-07-23T07:20:15;100334.00;;;21.30
24639;BMP180;1641;51.306;12.384;2022-07-23T07:22:40;100318.00;;;21.20
24639;BMP180;1641;51.306;12.384;2022-07-23T07:25:06;100326.00;;;21.00
24639;BMP180;1641;51.306;12.384;2022-07-23T07:27:32;100322.00;;;21.30
24639;BMP180;1641;51.306;12.384;2022-07-23T07:29:57;100318.00;;;20.50
24639;BMP180;1641;51.306;12.384;2022-07-23T07:32:22;100325.00;;;20.50
24639;BMP180;1641;51.306;12.384;2022-07-23T07:34:48;100325.00;;;20.50
24639;BMP180;1641;51.306;12.384;2022-07-23T07:37:13;100323.00;;;20.30
24639;BMP180;1641;51.306;12.384;2022-07-23T07:39:38;100336.00;;;20.40
24639;BMP180;1641;51.306;12.384;2022-07-23T07:42:03;100319.00;;;20.90
24639;BMP180;1641;51.306;12.384;2022-07-23T07:44:29;100337.00;;;21.00
24639;BMP180;1641;51.306;12.384;2022-07-23T07:46:54;100349.00;;;20.80
24639;BMP180;1641;51.306;12.384;2022-07-23T07:49:21;100339.00;;;20.60
24639;BMP180;1641;51.306;12.384;2022-07-23T07:51:47;100342.00;;;20.60
24639;BMP180;1641;51.306;12.384;2022-07-23T07:54:12;100358.00;;;20.40
24639;BMP180;1641;51.306;12.384;2022-07-23T07:56:38;100326.00;;;20.50
24639;BMP180;1641;51.306;12.384;2022-07-23T07:59:03;100358.00;;;20.30
24639;BMP180;1641;51.306;12.384;2022-07-23T08:01:29;100355.00;;;20.30
24639;BMP180;1641;51.306;12.384;2022-07-23T08:03:57;100349.00;;;20.50
24639;BMP180;1641;51.306;12.384;2022-07-23T08:06:22;100349.00;;;20.90
24639;BMP180;1641;51.306;12.384;2022-07-23T08:08:48;100340.00;;;21.00
24639;BMP180;1641;51.306;12.384;2022-07-23T08:11:13;100348.00;;;20.90
24639;BMP180;1641;51.306;12.384;2022-07-23T08:13:39;100353.00;;;20.90
24639;BMP180;1641;51.306;12.384;2022-07-23T08:16:04;100345.00;;;21.10
24639;BMP180;1641;51.306;12.384;2022-07-23T08:18:29;100333.00;;;21.30
24639;BMP180;1641;51.306;12.384;2022-07-23T08:20:55;100351.00;;;21.10
24639;BMP180;1641;51.306;12.384;2022-07-23T08:23:20;100352.00;;;20.90
24639;BMP180;1641;51.306;12.384;2022-07-23T08:25:46;100347.00;;;21.10
24639;BMP180;1641;51.306;12.384;2022-07-23T08:28:13;100360.00;;;21.10
24639;BMP180;1641;51.306;12.384;2022-07-23T08:30:40;100318.00;;;21.70
24639;BMP180;1641;51.306;12.384;2022-07-23T08:33:08;100353.00;;;21.00
24639;BMP180;1641;51.306;12.384;2022-07-23T08:35:41;100367.00;;;21.20
24639;BMP180;1641;51.306;12.384;2022-07-23T08:38:08;100353.00;;;21.10
24639;BMP180;1641;51.306;12.384;2022-07-23T08:40:37;100367.00;;;20.90
24639;BMP180;1641;51.306;12.384;2022-07-23T08:43:07;100379.00;;;20.70
24639;BMP180;1641;51.306;12.384;2022-07-23T08:45:38;100376.00;;;21.40
24639;BMP180;1641;51.306;12.384;2022-07-23T08:48:06;100387.00;;;21.10
24639;BMP180;1641;51.306;12.384;2022-07-23T08:50:32;100382.00;;;21.40
24639;BMP180;1641;51.306;12.384;2022-07-23T08:52:58;100363.00;;;21.30
24639;BMP180;1641;51.306;12.384;2022-07-23T08:55:24;100388.00;;;20.90
24639;BMP180;1641;51.306;12.384;2022-07-23T08:57:52;100359.00;;;21.00
24639;BMP180;1641;51.306;12.384;2022-07-23T09:00:21;100381.00;;;21.30
24639;BMP180;1641;51.306;12.384;2022-07-23T09:02:47;100383.00;;;21.00
24639;BMP180;1641;51.306;12.384;2022-07-23T09:05:13;100387.00;;;21.70
24639;BMP180;1641;51.306;12.384;2022-07-23T09:08:11;100399.00;;;21.60
24639;BMP180;1641;51.306;12.384;2022-07-23T09:13:22;100393.00;;;22.20
24639;BMP180;1641;51.306;12.384;2022-07-23T09:15:49;100393.00;;;22.30
24639;BMP180;1641;51.306;12.384;2022-07-23T09:18:16;100381.00;;;21.90
24639;BMP180;1641;51.306;12.384;2022-07-23T09:20:42;100383.00;;;22.60
24639;BMP180;1641;51.306;12.384;2022-07-23T09:23:08;100416.00;;;22.20
24639;BMP180;1641;51.306;12.384;2022-07-23T09:25:33;100405.00;;;21.70
24639;BMP180;1641;51.306;12.384;2022-07-23T09:27:59;100422.00;;;21.50
24639;BMP180;1641;51.306;12.384;2022-07-23T09:30:29;100422.00;;;21.50
24639;BMP180;1641;51.306;12.384;2022-07-23T09:33:12;100424.00;;;21.00
24639;BMP180;1641;51.306;12.384;2022-07-23T09:35:48;100431.00;;;20.70
24639;BMP180;1641;51.306;12.384;2022-07-23T09:38:15;100433.00;;;20.70
24639;BMP180;1641;51.306;12.384;2022-07-23T09:40:41;100434.00;;;21.00
24639;BMP180;1641;51.306;12.384;2022-07-23T09:43:07;100424.00;;;21.10
24639;BMP180;1641;51.306;12.384;2022-07-23T09:45:32;100406.00;;;21.00
24639;BMP180;1641;51.306;12.384;2022-07-23T09:48:14;100417.00;;;20.80
24639;BMP180;1641;51.306;12.384;2022-07-23T09:50:41;100407.00;;;20.90
24639;BMP180;1641;51.306;12.384;2022-07-23T09:53:07;100428.00;;;21.40
24639;BMP180;1641;51.306;12.384;2022-07-23T09:55:35;100401.00;;;21.40
24639;BMP180;1641;51.306;12.384;2022-07-23T09:58:02;100404.00;;;21.40
24639;BMP180;1641;51.306;12.384;2022-07-23T10:00:28;100423.00;;;21.20
24639;BMP180;1641;51.306;12.384;2022-07-23T10:02:54;100417.00;;;21.50
24639;BMP180;1641;51.306;12.384;2022-07-23T10:05:20;100441.00;;;21.60
24639;BMP180;1641;51.306;12.384;2022-07-23T10:07:46;100446.00;;;21.20
24639;BMP180;1641;51.306;12.384;2022-07-23T10:10:13;100438.00;;;21.40
24639;BMP180;1641;51.306;12.384;2022-07-23T10:12:43;100416.00;;;21.30
24639;BMP180;1641;51.306;12.384;2022-07-23T10:15:27;100435.00;;;21.40
24639;BMP180;1641;51.306;12.384;2022-07-23T10:17:53;100446.00;;;21.20
24639;BMP180;1641;51.306;12.384;2022-07-23T10:20:18;100449.00;;;21.40
24639;BMP180;1641;51.306;12.384;2022-07-23T10:23:00;100446.00;;;20.90
24639;BMP180;1641;51.306;12.384;2022-07-23T10:25:34;100451.00;;;20.90
24639;BMP180;1641;51.306;12.384;2022-07-23T10:33:58;100453.00;;;20.60
24639;BMP180;1641;51.306;12.384;2022-07-23T10:36:49;100457.00;;;21.20
24639;BMP180;1641;51.306;12.384;2022-07-23T10:42:33;100415.00;;;21.20
24639;BMP180;1641;51.306;12.384;2022-07-23T10:47:56;100455.00;;;21.50
24639;BMP180;1641;51.306;12.384;2022-07-23T10:50:36;100437.00;;;21.30
24639;BMP180;1641;51.306;12.384;2022-07-23T10:53:15;100439.00;;;21.70
24639;BMP180;1641;51.306;12.384;2022-07-23T10:55:45;100439.00;;;21.90
24639;BMP180;1641;51.306;12.384;2022-07-23T10:58:12;100437.00;;;22.00
24639;BMP180;1641;51.306;12.384;2022-07-23T11:00:42;100438.00;;;22.00
24639;BMP180;1641;51.306;12.384;2022-07-23T11:03:30;100445.00;;;22.40
24639;BMP180;1641;51.306;12.384;2022-07-23T11:05:57;100444.00;;;21.90
24639;BMP180;1641;51.306;12.384;2022-07-23T11:08:26;100456.00;;;22.00
24639;BMP180;1641;51.306;12.384;2022-07-23T11:11:07;100458.00;;;22.10
24639;BMP180;1641;51.306;12.384;2022-07-23T11:13:42;100457.00;;;21.70
24639;BMP180;1641;51.306;12.384;2022-07-23T11:16:20;100401.00;;;21.60
24639;BMP180;1641;51.306;12.384;2022-07-23T11:18:54;100453.00;;;21.70
24639;BMP180;1641;51.306;12.384;2022-07-23T11:24:14;100460.00;;;22.10
24639;BMP180;1641;51.306;12.384;2022-07-23T11:34:42;100439.00;;;22.30
24639;BMP180;1641;51.306;12.384;2022-07-23T11:37:10;100444.00;;;22.10
24639;BMP180;1641;51.306;12.384;2022-07-23T11:39:37;100442.00;;;22.40
24639;BMP180;1641;51.306;12.384;2022-07-23T11:42:04;100445.00;;;22.90
24639;BMP180;1641;51.306;12.384;2022-07-23T11:44:34;100447.00;;;23.00
24639;BMP180;1641;51.306;12.384;2022-07-23T11:47:02;100445.00;;;22.70
24639;BMP180;1641;51.306;12.384;2022-07-23T11:49:31;100440.00;;;23.00
24639;BMP180;1641;51.306;12.384;2022-07-23T11:54:46;100426.00;;;23.30
24639;BMP180;1641;51.306;12.384;2022-07-23T11:57:12;100426.00;;;23.50
24639;BMP180;1641;51.306;12.384;2022-07-23T11:59:38;100437.00;;;23.70
24639;BMP180;1641;51.306;12.384;2022-07-23T12:02:04;100435.00;;;24.50
24639;BMP180;1641;51.306;12.384;2022-07-23T12:04:44;100415.00;;;24.60
24639;BMP180;1641;51.306;12.384;2022-07-23T12:07:34;100431.00;;;23.50
24639;BMP180;1641;51.306;12.384;2022-07-23T12:10:18;100447.00;;;23.50
24639;BMP180;1641;51.306;12.384;2022-07-23T12:12:52;100435.00;;;23.60
24639;BMP180;1641;51.306;12.384;2022-07-23T12:15:26;100449.00;;;23.40
24639;BMP180;1641;51.306;12.384;2022-07-23T12:17:54;100437.00;;;24.00
24639;BMP180;1641;51.306;12.384;2022-07-23T12:20:22;100437.00;;;23.80
24639;BMP180;1641;51.306;12.384;2022-07-23T12:22:55;100441.00;;;23.70
24639;BMP180;1641;51.306;12.384;2022-07-23T12:25:24;100402.00;;;24.00
24639;BMP180;1641;51.306;12.384;2022-07-23T12:28:06;100440.00;;;24.20
24639;BMP180;1641;51.306;12.384;2022-07-23T12:30:36;100436.00;;;24.50
24639;BMP180;1641;51.306;12.384;2022-07-23T12:33:06;100440.00;;;24.30
24639;BMP180;1641;51.306;12.384;2022-07-23T12:35:40;100438.00;;;25.00
24639;BMP180;1641;51.306;12.384;2022-07-23T12:38:12;100436.00;;;25.20
24639;BMP180;1641;51.306;12.384;2022-07-23T12:43:33;100434.00;;;24.50
24639;BMP180;1641;51.306;12.384;2022-07-23T12:46:08;100438.00;;;24.20
24639;BMP180;1641;51.306;12.384;2022-07-23T12:48:36;100440.00;;;23.90
24639;BMP180;1641;51.306;12.384;2022-07-23T12:51:06;100438.00;;;23.70
24639;BMP180;1641;51.306;12.384;2022-07-23T12:53:40;100436.00;;;24.10
24639;BMP180;1641;51.306;12.384;2022-07-23T12:56:16;100408.00;;;24.40
24639;BMP180;1641;51.306;12.384;2022-07-23T12:58:51;100436.00;;;24.20
24639;BMP180;1641;51.306;12.384;2022-07-23T13:01:27;100420.00;;;24.90
24639;BMP180;1641;51.306;12.384;2022-07-23T13:06:34;100416.00;;;24.50
24639;BMP180;1641;51.306;12.384;2022-07-23T13:08:59;100414.00;;;25.10
24639;BMP180;1641;51.306;12.384;2022-07-23T13:11:28;100397.00;;;24.70
24639;BMP180;1641;51.306;12.384;2022-07-23T13:13:56;100407.00;;;24.20
24639;BMP180;1641;51.306;12.384;2022-07-23T13:16:22;100408.00;;;24.20
24639;BMP180;1641;51.306;12.384;2022-07-23T13:18:47;100407.00;;;24.20
24639;BMP180;1641;51.306;12.384;2022-07-23T13:21:19;100411.00;;;24.40
24639;BMP180;1641;51.306;12.384;2022-07-23T13:23:44;100408.00;;;24.00
24639;BMP180;1641;51.306;12.384;2022-07-23T13:26:09;100375.00;;;24.10
24639;BMP180;1641;51.306;12.384;2022-07-23T13:28:35;100400.00;;;24.10
24639;BMP180;1641;51.306;12.384;2022-07-23T13:31:00;100375.00;;;23.90
24639;BMP180;1641;51.306;12.384;2022-07-23T13:33:25;100399.00;;;23.90
24639;BMP180;1641;51.306;12.384;2022-07-23T13:35:52;100395.00;;;24.30
24639;BMP180;1641;51.306;12.384;2022-07-23T13:38:19;100379.00;;;23.90
24639;BMP180;1641;51.306;12.384;2022-07-23T13:40:46;100405.00;;;24.00
24639;BMP180;1641;51.306;12.384;2022-07-23T13:43:19;100399.00;;;23.90
24639;BMP180;1641;51.306;12.384;2022-07-23T13:45:49;100397.00;;;24.10
24639;BMP180;1641;51.306;12.384;2022-07-23T13:48:15;100388.00;;;24.50
24639;BMP180;1641;51.306;12.384;2022-07-23T13:50:42;100391.00;;;25.10
24639;BMP180;1641;51.306;12.384;2022-07-23T13:53:10;100387.00;;;25.10
24639;BMP180;1641;51.306;12.384;2022-07-23T13:55:37;100395.00;;;25.00
24639;BMP180;1641;51.306;12.384;2022-07-23T13:58:04;100382.00;;;25.00
24639;BMP180;1641;51.306;12.384;2022-07-23T14:00:30;100388.00;;;25.00
24639;BMP180;1641;51.306;12.384;2022-07-23T14:02:57;100381.00;;;25.30
24639;BMP180;1641;51.306;12.384;2022-07-23T14:05:22;100380.00;;;25.60
24639;BMP180;1641;51.306;12.384;2022-07-23T14:07:48;100386.00;;;25.80
24639;BMP180;1641;51.306;12.384;2022-07-23T14:10:15;100383.00;;;26.10
24639;BMP180;1641;51.306;12.384;2022-07-23T14:12:41;100376.00;;;25.80
24639;BMP180;1641;51.306;12.384;2022-07-23T14:15:06;100390.00;;;25.40
24639;BMP180;1641;51.306;12.384;2022-07-23T14:17:37;100394.00;;;25.40
24639;BMP180;1641;51.306;12.384;2022-07-23T14:20:13;100387.00;;;25.10
24639;BMP180;1641;51.306;12.384;2022-07-23T14:22:38;100391.00;;;25.50
24639;BMP180;1641;51.306;12.384;2022-07-23T14:25:05;100385.00;;;25.50
24639;BMP180;1641;51.306;12.384;2022-07-23T14:27:31;100395.00;;;25.90
24639;BMP180;1641;51.306;12.384;2022-07-23T14:29:57;100389.00;;;25.70
24639;BMP180;1641;51.306;12.384;2022-07-23T14:32:22;100387.00;;;25.70